createdAt,value
2018-04-27T00:01:16.463Z,11.37
2018-04-27T00:03:43.977Z,7.30
2018-04-27T00:06:11.599Z,7.00
2018-04-27T00:08:39.107Z,9.93
2018-04-27T00:11:06.619Z,8.77
2018-04-27T00:13:34.137Z,9.67
2018-04-27T00:16:01.784Z,10.80
2018-04-27T00:18:29.311Z,8.20
2018-04-27T00:20:56.833Z,11.00
2018-04-27T00:23:25.106Z,7.30
2018-04-27T00:25:53.554Z,6.90
2018-04-27T00:28:21.070Z,6.90
2018-04-27T00:30:48.582Z,6.33
2018-04-27T00:33:16.087Z,9.37
2018-04-27T00:35:43.607Z,7.50
2018-04-27T00:38:11.879Z,6.30
2018-04-27T00:40:40.161Z,9.57
2018-04-27T00:43:08.439Z,6.50
2018-04-27T00:45:36.723Z,7.77
2018-04-27T00:48:05.112Z,7.50
2018-04-27T00:50:32.613Z,8.77
2018-04-27T00:53:12.089Z,6.53
2018-04-27T00:55:39.648Z,5.77
2018-04-27T00:58:07.190Z,8.73
2018-04-27T01:00:34.823Z,8.77
2018-04-27T01:03:02.342Z,6.17
2018-04-27T01:05:29.849Z,7.80
2018-04-27T01:07:57.376Z,6.20
2018-04-27T01:10:24.896Z,11.13
2018-04-27T01:12:52.578Z,8.97
2018-04-27T01:15:20.082Z,8.30
2018-04-27T01:17:47.588Z,6.17
2018-04-27T01:20:15.872Z,6.67
2018-04-27T01:22:43.459Z,9.47
2018-04-27T01:25:10.989Z,7.90
2018-04-27T01:27:38.554Z,9.60
2018-04-27T01:30:06.211Z,7.47
2018-04-27T01:32:33.951Z,9.33
2018-04-27T01:35:02.243Z,10.27
2018-04-27T01:37:29.764Z,10.77
2018-04-27T01:39:57.290Z,11.30
2018-04-27T01:42:24.799Z,5.47
2018-04-27T01:44:53.487Z,7.00
2018-04-27T01:47:21.916Z,7.40
2018-04-27T01:49:49.446Z,7.67
2018-04-27T01:52:17.047Z,9.00
2018-04-27T01:54:44.490Z,7.40
2018-04-27T01:57:12.131Z,8.30
2018-04-27T01:59:39.638Z,5.90
2018-04-27T02:02:07.146Z,7.27
2018-04-27T02:04:34.672Z,7.70
2018-04-27T02:07:02.186Z,8.27
2018-04-27T02:09:30.215Z,6.60
2018-04-27T02:11:57.734Z,9.87
2018-04-27T02:14:25.251Z,10.63
2018-04-27T02:16:53.619Z,8.50
2018-04-27T02:19:21.371Z,8.93
2018-04-27T02:21:49.643Z,11.93
2018-04-27T02:24:17.926Z,5.90
2018-04-27T02:26:46.198Z,9.33
2018-04-27T02:29:14.595Z,13.30
2018-04-27T02:31:42.116Z,6.27
2018-04-27T02:34:09.645Z,5.40
2018-04-27T02:36:37.152Z,10.37
2018-04-27T02:39:04.830Z,11.40
2018-04-27T02:41:32.341Z,11.43
2018-04-27T02:43:59.845Z,9.07
2018-04-27T02:46:27.367Z,8.77
2018-04-27T02:48:56.395Z,7.73
2018-04-27T02:51:23.916Z,8.90
2018-04-27T02:53:51.436Z,7.63
2018-04-27T02:56:18.944Z,10.57
2018-04-27T02:58:47.238Z,12.63
2018-04-27T03:01:15.529Z,12.03
2018-04-27T03:03:43.042Z,10.00
2018-04-27T03:06:10.606Z,7.03
2018-04-27T03:08:38.133Z,5.97
2018-04-27T03:11:05.633Z,6.53
2018-04-27T03:13:33.160Z,9.20
2018-04-27T03:16:00.673Z,14.10
2018-04-27T03:18:28.207Z,13.43
2018-04-27T03:20:56.660Z,8.87
2018-04-27T03:23:24.158Z,14.47
2018-04-27T03:25:51.798Z,7.40
2018-04-27T03:28:19.317Z,8.50
2018-04-27T03:30:46.837Z,6.47
2018-04-27T03:33:14.372Z,11.87
2018-04-27T03:35:41.907Z,8.90
2018-04-27T03:38:09.413Z,10.23
2018-04-27T03:40:37.699Z,10.30
2018-04-27T03:43:05.216Z,10.83
2018-04-27T03:45:33.506Z,10.33
2018-04-27T03:48:01.040Z,8.53
2018-04-27T03:50:28.652Z,10.70
2018-04-27T03:52:56.161Z,11.07
2018-04-27T03:55:23.677Z,9.83
2018-04-27T03:57:51.204Z,6.70
2018-04-27T04:00:30.510Z,9.23
2018-04-27T04:03:09.815Z,8.67
2018-04-27T04:05:37.413Z,15.07
2018-04-27T04:08:04.937Z,13.33
2018-04-27T04:10:32.450Z,10.60
2018-04-27T04:12:59.974Z,11.00
2018-04-27T04:15:27.496Z,15.90
2018-04-27T04:17:55.008Z,13.03
2018-04-27T04:20:22.527Z,12.77
2018-04-27T04:22:50.045Z,11.70
2018-04-27T04:25:18.326Z,9.67
2018-04-27T04:27:46.595Z,10.23
2018-04-27T04:30:14.887Z,9.93
2018-04-27T04:32:42.393Z,15.63
2018-04-27T04:35:09.905Z,13.00
2018-04-27T04:37:37.457Z,9.37
2018-04-27T04:40:04.969Z,13.30
2018-04-27T04:42:32.475Z,9.10
2018-04-27T04:45:00.135Z,13.10
2018-04-27T04:47:27.652Z,9.97
2018-04-27T04:49:55.169Z,13.60
2018-04-27T04:52:22.784Z,11.23
2018-04-27T04:54:50.271Z,11.33
2018-04-27T04:57:17.795Z,9.77
2018-04-27T04:59:46.100Z,11.47
2018-04-27T05:02:13.640Z,11.70
2018-04-27T05:04:41.982Z,14.00
2018-04-27T05:07:09.495Z,10.73
2018-04-27T05:09:37.019Z,12.33
2018-04-27T05:12:04.541Z,8.57
2018-04-27T05:14:32.079Z,14.70
2018-04-27T05:16:59.594Z,13.43
2018-04-27T05:19:27.096Z,10.03
2018-04-27T05:21:54.603Z,9.93
2018-04-27T05:24:22.145Z,11.70
2018-04-27T05:26:49.783Z,10.00
2018-04-27T05:29:18.975Z,13.67
2018-04-27T05:31:47.857Z,12.13
2018-04-27T05:34:18.068Z,12.87
2018-04-27T05:36:48.955Z,10.40
2018-04-27T05:39:18.019Z,10.27
2018-04-27T05:41:45.553Z,8.13
2018-04-27T05:44:13.078Z,9.53
2018-04-27T05:46:40.698Z,13.23
2018-04-27T05:49:08.879Z,13.53
2018-04-27T05:51:36.721Z,11.77
2018-04-27T05:54:04.236Z,13.47
2018-04-27T05:56:32.570Z,9.33
2018-04-27T05:59:00.072Z,12.03
2018-04-27T06:01:27.603Z,13.33
2018-04-27T06:04:07.175Z,11.40
2018-04-27T06:06:34.717Z,12.57
2018-04-27T06:09:03.003Z,11.60
2018-04-27T06:11:32.109Z,15.23
2018-04-27T06:13:59.700Z,12.67
2018-04-27T06:16:27.294Z,10.87
2018-04-27T06:18:54.836Z,12.40
2018-04-27T06:21:22.359Z,13.37
2018-04-27T06:23:50.641Z,10.70
2018-04-27T06:26:18.918Z,13.13
2018-04-27T06:28:49.041Z,10.77
2018-04-27T06:31:17.343Z,9.07
2018-04-27T06:33:44.866Z,9.50
2018-04-27T06:36:12.398Z,9.80
2018-04-27T06:38:39.907Z,9.23
2018-04-27T06:41:07.414Z,8.23
2018-04-27T06:43:34.924Z,10.30
2018-04-27T06:46:02.444Z,14.17
2018-04-27T06:48:29.972Z,9.20
2018-04-27T06:50:58.342Z,10.40
2018-04-27T06:53:25.892Z,10.40
2018-04-27T06:55:53.418Z,9.00
2018-04-27T06:58:20.982Z,12.17
2018-04-27T07:00:49.245Z,11.27
2018-04-27T07:03:17.554Z,11.63
2018-04-27T07:05:45.079Z,13.00
2018-04-27T07:08:12.625Z,9.23
2018-04-27T07:10:40.164Z,10.77
2018-04-27T07:13:07.699Z,16.23
2018-04-27T07:15:35.249Z,10.20
2018-04-27T07:18:03.591Z,12.40
2018-04-27T07:20:31.091Z,11.00
2018-04-27T07:22:58.627Z,13.63
2018-04-27T07:25:26.125Z,8.40
2018-04-27T07:27:53.655Z,15.60
2018-04-27T07:30:21.205Z,17.00
2018-04-27T07:32:48.723Z,14.03
2018-04-27T07:35:17.756Z,9.07
2018-04-27T07:37:45.475Z,12.67
2018-04-27T07:40:13.005Z,15.37
2018-04-27T07:42:40.559Z,13.60
2018-04-27T07:45:08.077Z,10.37
2018-04-27T07:47:35.649Z,12.47
2018-04-27T07:50:03.162Z,15.03
2018-04-27T07:52:30.677Z,15.40
2018-04-27T07:54:58.209Z,12.80
2018-04-27T07:57:26.515Z,12.57
2018-04-27T07:59:54.036Z,12.63
2018-04-27T08:02:21.583Z,16.63
2018-04-27T08:04:49.096Z,12.53
2018-04-27T08:07:16.653Z,13.30
2018-04-27T08:09:44.193Z,13.43
2018-04-27T08:12:11.731Z,12.37
2018-04-27T08:14:39.297Z,12.03
2018-04-27T08:17:07.571Z,11.33
2018-04-27T08:19:35.848Z,14.23
2018-04-27T08:22:04.133Z,14.13
2018-04-27T08:24:32.429Z,10.10
2018-04-27T08:26:59.959Z,11.20
2018-04-27T08:29:27.470Z,8.90
2018-04-27T08:31:54.990Z,13.13
2018-04-27T08:34:22.504Z,12.93
2018-04-27T08:36:50.020Z,9.87
2018-04-27T08:39:17.536Z,14.07
2018-04-27T08:41:45.050Z,10.43
2018-04-27T08:44:12.574Z,11.47
2018-04-27T08:46:40.862Z,10.10
2018-04-27T08:49:08.528Z,9.00
2018-04-27T08:51:36.045Z,13.10
2018-04-27T08:54:03.561Z,8.97
2018-04-27T08:56:31.083Z,11.43
2018-04-27T08:58:59.373Z,13.90
2018-04-27T09:01:26.948Z,12.93
2018-04-27T09:03:54.461Z,9.40
2018-04-27T09:06:22.798Z,5.87
2018-04-27T09:08:51.037Z,10.83
2018-04-27T09:11:19.327Z,8.43
2018-04-27T09:13:46.875Z,11.70
2018-04-27T09:16:14.452Z,13.33
2018-04-27T09:18:41.967Z,11.33
2018-04-27T09:21:09.517Z,11.07
2018-04-27T09:23:37.143Z,7.70
2018-04-27T09:26:04.656Z,7.90
2018-04-27T09:28:32.966Z,5.60
2018-04-27T09:31:00.531Z,8.13
2018-04-27T09:33:28.099Z,8.10
2018-04-27T09:35:55.635Z,4.90
2018-04-27T09:38:23.168Z,9.80
2018-04-27T09:40:51.453Z,10.03
2018-04-27T09:43:19.004Z,7.83
2018-04-27T09:45:46.691Z,11.53
2018-04-27T09:48:14.207Z,6.83
2018-04-27T09:50:42.068Z,7.33
2018-04-27T09:53:09.546Z,9.83
2018-04-27T09:55:37.855Z,6.97
2018-04-27T09:58:05.377Z,12.03
2018-04-27T10:00:32.885Z,9.00
2018-04-27T10:03:00.439Z,10.07
2018-04-27T10:05:27.988Z,8.47
2018-04-27T10:07:55.501Z,8.33
2018-04-27T10:10:23.791Z,8.90
2018-04-27T10:12:52.101Z,9.23
2018-04-27T10:15:19.643Z,10.10
2018-04-27T10:17:47.159Z,8.77
2018-04-27T10:20:14.698Z,10.03
2018-04-27T10:22:42.263Z,9.47
2018-04-27T10:25:09.835Z,10.00
2018-04-27T10:27:37.535Z,9.70
2018-04-27T10:30:05.238Z,7.90
2018-04-27T10:32:32.846Z,9.30
2018-04-27T10:35:00.466Z,10.33
2018-04-27T10:37:28.000Z,9.07
2018-04-27T10:39:55.547Z,17.37
2018-04-27T10:42:23.071Z,8.10
2018-04-27T10:44:51.381Z,17.43
2018-04-27T10:47:18.915Z,7.03
2018-04-27T10:49:47.209Z,6.47
2018-04-27T10:52:14.749Z,6.70
2018-04-27T10:54:42.273Z,11.43
2018-04-27T10:57:10.547Z,6.67
2018-04-27T10:59:38.546Z,6.93
2018-04-27T11:02:06.070Z,7.73
2018-04-27T11:04:33.604Z,5.20
2018-04-27T11:07:01.161Z,6.33
2018-04-27T11:09:28.738Z,4.20
2018-04-27T11:11:56.258Z,6.20
2018-04-27T11:14:23.773Z,5.27
2018-04-27T11:16:51.551Z,7.60
2018-04-27T11:19:18.856Z,6.07
2018-04-27T11:21:46.389Z,7.63
2018-04-27T11:24:13.931Z,7.40
2018-04-27T11:26:41.442Z,4.97
2018-04-27T11:29:09.809Z,5.30
2018-04-27T11:31:37.337Z,4.03
2018-04-27T11:34:05.746Z,5.67
2018-04-27T11:36:33.269Z,7.07
2018-04-27T11:39:00.789Z,6.60
2018-04-27T11:41:28.303Z,5.70
2018-04-27T11:43:55.815Z,6.17
2018-04-27T11:46:23.356Z,6.33
2018-04-27T11:48:50.903Z,5.20
2018-04-27T11:51:18.433Z,6.80
2018-04-27T11:53:45.955Z,5.83
2018-04-27T11:56:13.490Z,4.93
2018-04-27T11:58:41.018Z,9.87
2018-04-27T12:01:08.596Z,6.17
2018-04-27T12:03:36.151Z,6.23
2018-04-27T12:06:03.668Z,4.50
2018-04-27T12:08:31.967Z,7.73
2018-04-27T12:10:59.550Z,4.90
2018-04-27T12:13:27.097Z,9.90
2018-04-27T12:15:54.635Z,5.67
2018-04-27T12:18:22.166Z,3.90
2018-04-27T12:20:49.694Z,4.47
2018-04-27T12:23:17.217Z,3.50
2018-04-27T12:25:44.747Z,7.83
2018-04-27T12:28:13.058Z,6.37
2018-04-27T12:30:40.600Z,3.80
2018-04-27T12:33:08.139Z,5.77
2018-04-27T12:35:36.421Z,4.43
2018-04-27T12:38:05.423Z,3.83
2018-04-27T12:40:32.975Z,6.77
2018-04-27T12:43:01.282Z,6.07
2018-04-27T12:45:28.783Z,5.93
2018-04-27T12:47:56.440Z,6.90
2018-04-27T12:50:23.969Z,4.07
2018-04-27T12:52:51.517Z,4.37
2018-04-27T12:55:19.040Z,6.83
2018-04-27T12:57:47.436Z,4.97
2018-04-27T13:00:14.963Z,6.47
2018-04-27T13:02:42.491Z,5.23
2018-04-27T13:05:09.995Z,5.47
2018-04-27T13:07:37.535Z,6.37
2018-04-27T13:10:05.065Z,7.00
2018-04-27T13:12:32.667Z,4.50
2018-04-27T13:15:00.222Z,4.17
2018-04-27T13:17:28.075Z,4.47
2018-04-27T13:19:56.415Z,3.00
2018-04-27T13:22:23.935Z,4.17
2018-04-27T13:24:52.250Z,3.73
2018-04-27T13:27:19.796Z,3.10
2018-04-27T13:29:47.333Z,2.40
2018-04-27T13:32:15.817Z,4.87
2018-04-27T13:34:44.100Z,5.43
2018-04-27T13:37:11.639Z,4.00
2018-04-27T13:39:39.981Z,4.83
2018-04-27T13:42:07.523Z,3.63
2018-04-27T13:44:35.040Z,4.73
2018-04-27T13:47:02.581Z,3.93
2018-04-27T13:49:30.201Z,6.30
2018-04-27T13:51:57.819Z,5.60
2018-04-27T13:54:25.321Z,2.57
2018-04-27T13:56:52.860Z,3.53
2018-04-27T13:59:20.505Z,3.63
2018-04-27T14:01:49.769Z,4.07
2018-04-27T14:04:17.323Z,3.07
2018-04-27T14:06:44.849Z,2.77
2018-04-27T14:09:13.173Z,3.63
2018-04-27T14:11:40.699Z,2.80
2018-04-27T14:14:08.220Z,1.93
2018-04-27T14:16:35.891Z,1.50
2018-04-27T14:19:04.347Z,3.93
2018-04-27T14:21:31.957Z,3.93
2018-04-27T14:23:59.481Z,3.77
2018-04-27T14:26:27.012Z,2.97
2018-04-27T14:28:54.533Z,3.07
2018-04-27T14:31:22.063Z,4.23
2018-04-27T14:33:49.672Z,5.10
2018-04-27T14:36:17.163Z,3.60
2018-04-27T14:38:44.689Z,5.27
2018-04-27T14:41:12.223Z,6.33
2018-04-27T14:43:39.739Z,2.63
2018-04-27T14:46:07.267Z,4.20
2018-04-27T14:48:34.806Z,2.07
2018-04-27T14:51:02.336Z,3.63
2018-04-27T14:53:29.862Z,3.50
2018-04-27T14:55:58.179Z,5.07
2018-04-27T14:58:25.730Z,4.60
2018-04-27T15:00:53.298Z,2.87
2018-04-27T15:03:20.829Z,6.83
2018-04-27T15:05:48.585Z,3.57
2018-04-27T15:08:16.876Z,4.20
2018-04-27T15:10:45.175Z,6.00
2018-04-27T15:13:12.697Z,3.47
2018-04-27T15:15:41.328Z,2.53
2018-04-27T15:18:08.938Z,4.67
2018-04-27T15:20:37.356Z,4.27
2018-04-27T15:23:04.883Z,4.50
2018-04-27T15:25:33.168Z,6.07
2018-04-27T15:28:00.939Z,3.17
2018-04-27T15:30:28.491Z,3.70
2018-04-27T15:32:57.076Z,4.27
2018-04-27T15:35:24.599Z,5.10
2018-04-27T15:37:52.134Z,3.57
2018-04-27T15:40:19.764Z,6.27
2018-04-27T15:42:47.281Z,3.70
2018-04-27T15:45:14.800Z,3.50
2018-04-27T15:47:42.320Z,3.97
2018-04-27T15:50:10.724Z,3.00
2018-04-27T15:52:38.278Z,4.83
2018-04-27T15:55:05.812Z,3.63
2018-04-27T15:57:33.567Z,4.80
2018-04-27T16:00:01.863Z,3.50
2018-04-27T16:02:29.446Z,4.97
2018-04-27T16:04:56.991Z,5.27
2018-04-27T16:07:25.228Z,3.70
2018-04-27T16:09:52.742Z,4.00
2018-04-27T16:12:20.269Z,4.07
2018-04-27T16:14:47.817Z,6.47
2018-04-27T16:17:16.108Z,7.50
2018-04-27T16:19:43.675Z,15.17
2018-04-27T16:22:11.195Z,11.73
2018-04-27T16:24:38.787Z,6.60
2018-04-27T16:27:06.294Z,8.33
2018-04-27T16:29:33.828Z,3.23
2018-04-27T16:32:01.342Z,6.90
2018-04-27T16:34:29.708Z,4.17
2018-04-27T16:36:57.210Z,4.63
2018-04-27T16:39:24.716Z,3.53
2018-04-27T16:41:52.319Z,3.80
2018-04-27T16:44:20.576Z,5.20
2018-04-27T16:46:49.683Z,3.83
2018-04-27T16:49:17.978Z,3.43
2018-04-27T16:51:45.500Z,5.23
2018-04-27T16:54:13.042Z,6.63
2018-04-27T16:56:40.554Z,3.43
2018-04-27T16:59:08.157Z,5.47
2018-04-27T17:01:35.684Z,2.97
2018-04-27T17:04:03.240Z,5.93
2018-04-27T17:06:30.767Z,5.63
2018-04-27T17:08:59.062Z,3.63
2018-04-27T17:11:26.606Z,3.57
2018-04-27T17:13:54.122Z,5.17
2018-04-27T17:16:21.675Z,3.77
2018-04-27T17:18:49.241Z,3.97
2018-04-27T17:21:17.600Z,4.77
2018-04-27T17:23:45.338Z,9.10
2018-04-27T17:26:12.860Z,5.27
2018-04-27T17:28:41.175Z,4.30
2018-04-27T17:31:08.713Z,4.33
2018-04-27T17:33:36.242Z,2.00
2018-04-27T17:36:05.258Z,2.53
2018-04-27T17:38:32.788Z,4.17
2018-04-27T17:41:00.356Z,5.83
2018-04-27T17:43:27.894Z,2.33
2018-04-27T17:45:55.441Z,3.90
2018-04-27T17:48:23.019Z,2.37
2018-04-27T17:50:50.548Z,3.10
2018-04-27T17:53:18.074Z,4.33
2018-04-27T17:55:45.620Z,2.60
2018-04-27T17:58:13.168Z,5.17
2018-04-27T18:00:40.692Z,2.40
2018-04-27T18:03:08.418Z,3.47
2018-04-27T18:05:35.967Z,6.17
2018-04-27T18:08:04.257Z,3.83
2018-04-27T18:10:32.092Z,2.90
2018-04-27T18:13:00.463Z,3.13
2018-04-27T18:15:28.112Z,2.93
2018-04-27T18:17:57.024Z,5.00
2018-04-27T18:20:25.324Z,2.93
2018-04-27T18:22:52.946Z,3.63
2018-04-27T18:25:20.547Z,3.03
2018-04-27T18:27:48.877Z,2.10
2018-04-27T18:30:17.199Z,7.43
2018-04-27T18:32:44.849Z,2.90
2018-04-27T18:35:12.411Z,2.73
2018-04-27T18:37:39.970Z,2.17
2018-04-27T18:40:07.517Z,3.10
2018-04-27T18:42:35.835Z,2.00
2018-04-27T18:45:03.384Z,4.17
2018-04-27T18:47:30.936Z,5.30
2018-04-27T18:49:58.504Z,1.80
2018-04-27T18:52:26.039Z,3.33
2018-04-27T18:54:54.416Z,1.87
2018-04-27T18:57:25.672Z,3.10
2018-04-27T18:59:53.238Z,4.30
2018-04-27T19:02:20.857Z,2.80
2018-04-27T19:04:48.595Z,3.87
2018-04-27T19:07:16.152Z,1.77
2018-04-27T19:09:43.739Z,3.73
2018-04-27T19:12:11.292Z,2.87
2018-04-27T19:14:38.861Z,2.27
2018-04-27T19:17:06.519Z,2.23
2018-04-27T19:19:34.132Z,1.30
2018-04-27T19:22:01.963Z,3.33
2018-04-27T19:24:29.526Z,4.00
2018-04-27T19:26:58.811Z,3.07
2018-04-27T19:29:27.284Z,5.10
2018-04-27T19:31:55.666Z,3.47
2018-04-27T19:34:23.291Z,3.53
2018-04-27T19:36:51.464Z,4.93
2018-04-27T19:39:19.036Z,3.97
2018-04-27T19:41:46.598Z,3.80
2018-04-27T19:44:15.015Z,3.70
2018-04-27T19:46:42.551Z,2.83
2018-04-27T19:49:10.112Z,2.87
2018-04-27T19:51:37.685Z,3.77
2018-04-27T19:54:06.694Z,3.37
2018-04-27T19:56:34.237Z,3.20
2018-04-27T19:59:02.611Z,2.60
2018-04-27T20:01:30.141Z,1.97
2018-04-27T20:03:57.689Z,2.97
2018-04-27T20:06:25.248Z,2.10
2018-04-27T20:08:52.832Z,2.93
2018-04-27T20:11:20.414Z,2.00
2018-04-27T20:13:48.884Z,4.27
2018-04-27T20:19:17.232Z,3.77
2018-04-27T20:21:44.786Z,4.63
2018-04-27T20:24:12.355Z,2.37
2018-04-27T20:26:39.982Z,2.23
2018-04-27T20:29:07.554Z,3.80
2018-04-27T20:31:35.112Z,3.33
2018-04-27T20:34:02.827Z,3.80
2018-04-27T20:36:30.363Z,2.80
2018-04-27T20:38:57.918Z,2.93
2018-04-27T20:41:25.455Z,4.77
2018-04-27T20:43:53.837Z,2.97
2018-04-27T20:46:21.645Z,2.97
2018-04-27T20:48:51.834Z,2.67
2018-04-27T20:51:20.147Z,3.73
2018-04-27T20:54:04.245Z,8.83
2018-04-27T20:56:41.687Z,3.73
2018-04-27T20:59:09.289Z,3.17
2018-04-27T21:01:37.576Z,2.57
2018-04-27T21:04:05.110Z,3.93
2018-04-27T21:06:32.636Z,3.70
2018-04-27T21:09:00.160Z,4.30
2018-04-27T21:11:27.742Z,5.33
2018-04-27T21:13:55.294Z,5.93
2018-04-27T21:16:22.812Z,3.93
2018-04-27T21:18:50.372Z,4.23
2018-04-27T21:21:17.922Z,4.83
2018-04-27T21:23:45.423Z,4.10
2018-04-27T21:26:19.790Z,4.43
2018-04-27T21:28:47.328Z,2.97
2018-04-27T21:31:14.869Z,6.23
2018-04-27T21:33:57.284Z,2.97
2018-04-27T21:36:30.176Z,4.20
2018-04-27T21:39:26.110Z,5.30
2018-04-27T21:42:12.840Z,5.03
2018-04-27T21:44:41.214Z,2.70
2018-04-27T21:50:16.371Z,3.47
2018-04-27T21:52:49.312Z,5.43
2018-04-27T21:55:16.829Z,3.50
2018-04-27T21:57:55.930Z,3.60
2018-04-27T22:00:25.093Z,5.10
2018-04-27T22:03:04.486Z,3.67
2018-04-27T22:05:31.997Z,4.80
2018-04-27T22:07:59.525Z,5.00
2018-04-27T22:10:27.246Z,4.60
2018-04-27T22:12:57.714Z,5.83
2018-04-27T22:15:25.234Z,6.27
2018-04-27T22:17:52.753Z,4.33
2018-04-27T22:20:22.049Z,6.07
2018-04-27T22:22:50.486Z,5.13
2018-04-27T22:25:29.208Z,4.77
2018-04-27T22:27:59.122Z,4.53
2018-04-27T22:30:28.278Z,6.83
2018-04-27T22:32:55.794Z,7.67
2018-04-27T22:35:34.080Z,6.17
2018-04-27T22:38:01.596Z,6.13
2018-04-27T22:40:48.644Z,5.93
2018-04-27T22:43:18.752Z,5.20
2018-04-27T22:46:01.914Z,6.17
2018-04-27T22:48:31.229Z,6.13
2018-04-27T22:51:00.158Z,5.80
2018-04-27T22:53:32.692Z,6.70
2018-04-27T22:56:00.213Z,7.00
2018-04-27T22:58:28.507Z,5.87
2018-04-27T23:00:59.548Z,7.17
2018-04-27T23:03:27.866Z,6.10
2018-04-27T23:05:55.399Z,5.23
2018-04-27T23:08:22.921Z,4.93
2018-04-27T23:11:17.516Z,6.13
2018-04-27T23:13:46.566Z,6.40
2018-04-27T23:16:14.894Z,7.33
2018-04-27T23:18:43.180Z,5.60
2018-04-27T23:21:14.338Z,6.80
2018-04-27T23:23:41.878Z,7.73
2018-04-27T23:26:09.426Z,4.70
2018-04-27T23:28:37.708Z,5.33
2018-04-27T23:31:05.225Z,5.20
2018-04-27T23:33:33.549Z,7.67
2018-04-27T23:36:01.087Z,5.63
2018-04-27T23:38:28.610Z,5.47
2018-04-27T23:40:56.204Z,6.43
2018-04-27T23:43:25.171Z,7.43
2018-04-27T23:45:53.557Z,5.03
2018-04-27T23:48:21.112Z,5.70
2018-04-27T23:50:51.316Z,5.93
2018-04-27T23:53:18.877Z,5.03
2018-04-27T23:55:46.425Z,6.67
2018-04-27T23:58:16.752Z,6.30
